Time;durP1;ratioP1;P1;durP2;ratioP2;P2;SDS_P1;SDS_P2;PMS_P1;PMS_P2;Temp;Humidity;BMP_temperature;BMP_pressure;BME280_temperature;BME280_humidity;BME280_pressure;Samples;Min_cycle;Max_cycle;Signal;HPM_P1;HPM_P2
2024/01/31 00:02:14;;;;;;;16.98;9.40;;;;;;;5.33;100.00;98858.13;5038797;28;20705;-61
2024/01/31 00:04:41;;;;;;;15.88;9.38;;;;;;;5.24;100.00;98858.38;5033510;28;20456;-60
2024/01/31 00:07:08;;;;;;;13.93;9.27;;;;;;;5.21;100.00;98865.75;5037927;28;20045;-61
2024/01/31 00:09:34;;;;;;;13.75;9.40;;;;;;;5.24;100.00;98861.06;5045241;28;20041;-61
2024/01/31 00:12:01;;;;;;;14.65;9.00;;;;;;;5.27;100.00;98856.13;5047920;28;20146;-59
2024/01/31 00:14:27;;;;;;;13.20;8.07;;;;;;;5.39;100.00;98858.41;5044908;28;20109;-60
2024/01/31 00:16:53;;;;;;;11.75;7.30;;;;;;;5.40;100.00;98862.75;5047531;28;20399;-61
2024/01/31 00:19:20;;;;;;;14.00;8.70;;;;;;;5.40;100.00;98860.06;5036777;28;20048;-60
2024/01/31 00:21:47;;;;;;;12.85;7.72;;;;;;;5.40;100.00;98857.38;5040345;28;20068;-60
2024/01/31 00:24:13;;;;;;;11.77;7.68;;;;;;;5.49;100.00;98856.28;5037146;28;20092;-60
2024/01/31 00:26:40;;;;;;;11.38;7.30;;;;;;;5.50;100.00;98866.03;5042911;28;20048;-60
2024/01/31 00:29:06;;;;;;;12.07;7.55;;;;;;;5.49;100.00;98858.97;5040912;28;20045;-61
2024/01/31 00:31:33;;;;;;;15.63;6.95;;;;;;;5.51;100.00;98862.31;5036885;28;20038;-60
2024/01/31 00:34:00;;;;;;;10.60;7.18;;;;;;;5.55;100.00;98866.31;5038107;28;20175;-61
2024/01/31 00:36:27;;;;;;;10.18;6.32;;;;;;;5.54;100.00;98856.59;5031910;28;20527;-60
2024/01/31 00:38:54;;;;;;;11.00;6.80;;;;;;;5.53;100.00;98865.66;5042734;28;20048;-60
2024/01/31 00:41:20;;;;;;;10.25;6.25;;;;;;;5.57;100.00;98861.59;5049722;28;20040;-60
2024/01/31 00:43:47;;;;;;;9.70;6.28;;;;;;;5.70;100.00;98863.66;5050817;28;20131;-59
2024/01/31 00:46:13;;;;;;;10.38;6.20;;;;;;;5.71;100.00;98861.78;5033147;28;20104;-60
2024/01/31 00:48:40;;;;;;;11.13;6.72;;;;;;;5.69;100.00;98861.16;5041686;28;20059;-60
2024/01/31 00:51:12;;;;;;;11.45;6.35;;;;;;;5.70;100.00;98866.34;5043970;28;20055;-59
2024/01/31 00:53:39;;;;;;;9.85;6.28;;;;;;;5.78;100.00;98860.03;5033968;28;20045;-60
2024/01/31 00:56:08;;;;;;;10.48;6.00;;;;;;;5.79;100.00;98864.41;5043879;28;20046;-60
2024/01/31 00:58:35;;;;;;;10.23;7.00;;;;;;;5.80;100.00;98865.25;5045029;28;20419;-60
2024/01/31 01:01:02;;;;;;;11.30;7.38;;;;;;;5.83;100.00;98863.00;5038580;28;20048;-59
2024/01/31 01:03:29;;;;;;;10.32;6.88;;;;;;;5.88;100.00;98857.09;5038700;28;20064;-60
2024/01/31 01:05:56;;;;;;;10.27;6.43;;;;;;;5.85;100.00;98862.81;5047835;28;20058;-60
2024/01/31 01:08:22;;;;;;;9.02;5.90;;;;;;;5.84;100.00;98866.53;5040770;28;20037;-60
2024/01/31 01:10:49;;;;;;;10.93;6.07;;;;;;;6.06;100.00;98864.81;5051272;28;20604;-61
2024/01/31 01:13:16;;;;;;;11.18;6.75;;;;;;;5.94;100.00;98869.78;5030726;28;20044;-59
2024/01/31 01:15:42;;;;;;;10.15;6.55;;;;;;;5.82;100.00;98868.59;5029699;28;20182;-60
2024/01/31 01:18:09;;;;;;;9.70;6.15;;;;;;;5.77;100.00;98870.97;5041861;28;20499;-60
2024/01/31 01:20:35;;;;;;;10.38;6.63;;;;;;;5.71;100.00;98869.84;5037636;28;20539;-60
2024/01/31 01:23:02;;;;;;;11.27;6.65;;;;;;;5.76;100.00;98875.53;5041131;28;20696;-60
2024/01/31 01:25:28;;;;;;;11.20;6.80;;;;;;;5.80;100.00;98881.38;5045059;28;20049;-61
2024/01/31 01:27:55;;;;;;;10.98;6.35;;;;;;;5.81;100.00;98878.50;5035621;28;20037;-57
2024/01/31 01:30:21;;;;;;;9.48;6.68;;;;;;;5.72;100.00;98879.59;5040836;28;20037;-59
2024/01/31 01:32:48;;;;;;;10.40;6.68;;;;;;;5.71;100.00;98875.22;5037512;28;20049;-61
2024/01/31 01:35:16;;;;;;;9.25;6.53;;;;;;;5.78;100.00;98878.03;5039309;28;20037;-60
2024/01/31 01:37:42;;;;;;;10.07;5.82;;;;;;;5.98;100.00;98864.88;5039667;28;20045;-60
2024/01/31 01:40:09;;;;;;;10.90;6.75;;;;;;;5.88;100.00;98867.84;5046946;28;20039;-59
2024/01/31 01:42:38;;;;;;;9.10;6.50;;;;;;;5.76;100.00;98877.38;5048164;28;20699;-58
2024/01/31 01:45:05;;;;;;;12.85;6.38;;;;;;;5.79;100.00;98864.41;5041264;28;20047;-61
2024/01/31 01:47:31;;;;;;;13.25;7.03;;;;;;;5.83;100.00;98864.88;5033233;28;20049;-61
2024/01/31 01:49:58;;;;;;;10.50;6.28;;;;;;;5.83;100.00;98863.00;5045882;28;20041;-60
2024/01/31 01:52:26;;;;;;;12.15;7.00;;;;;;;5.82;100.00;98864.03;5036874;28;20086;-61
2024/01/31 01:54:53;;;;;;;11.65;7.15;;;;;;;5.80;100.00;98860.72;5034194;28;20056;-61
2024/01/31 01:57:20;;;;;;;10.38;6.45;;;;;;;5.81;100.00;98856.16;5040326;28;20051;-61
2024/01/31 01:59:46;;;;;;;10.80;6.60;;;;;;;5.86;100.00;98849.22;5047269;28;20055;-61
2024/01/31 02:02:13;;;;;;;11.45;6.95;;;;;;;5.83;100.00;98848.75;5043179;28;20049;-60
2024/01/31 02:04:40;;;;;;;11.88;6.82;;;;;;;5.81;100.00;98848.94;5038761;28;20119;-61
2024/01/31 02:07:07;;;;;;;11.70;6.78;;;;;;;5.83;100.00;98851.44;5042120;28;20124;-60
2024/01/31 02:09:34;;;;;;;9.60;7.10;;;;;;;5.80;100.00;98844.59;5036451;28;20053;-61
2024/01/31 02:12:01;;;;;;;10.95;7.03;;;;;;;5.78;100.00;98843.91;5041328;28;20051;-58
2024/01/31 02:14:28;;;;;;;12.98;7.45;;;;;;;5.75;100.00;98846.97;5037024;28;20041;-59
2024/01/31 02:16:57;;;;;;;13.50;7.47;;;;;;;5.72;100.00;98836.59;5041422;28;20041;-59
2024/01/31 02:19:41;;;;;;;13.15;7.93;;;;;;;5.77;100.00;98833.34;5030134;28;20119;-60
2024/01/31 02:22:15;;;;;;;14.70;7.10;;;;;;;5.93;100.00;98835.84;5032925;28;20045;-59
2024/01/31 02:24:42;;;;;;;10.15;6.22;;;;;;;6.16;100.00;98843.00;5036399;28;20075;-57
2024/01/31 02:27:08;;;;;;;9.15;6.10;;;;;;;6.13;100.00;98838.03;5040391;28;20069;-60
2024/01/31 02:29:38;;;;;;;11.07;6.82;;;;;;;6.03;100.00;98832.94;5035728;28;20040;-60
2024/01/31 02:32:06;;;;;;;10.63;6.70;;;;;;;6.11;100.00;98831.97;5040157;28;20767;-59
2024/01/31 02:34:33;;;;;;;12.07;8.18;;;;;;;6.21;100.00;98829.00;5034800;28;20049;-60
2024/01/31 02:37:00;;;;;;;12.55;7.68;;;;;;;6.21;100.00;98831.69;5040401;28;20055;-60
2024/01/31 02:39:26;;;;;;;11.65;7.82;;;;;;;6.17;100.00;98827.72;5041690;28;20042;-59
2024/01/31 02:41:53;;;;;;;11.55;7.53;;;;;;;6.17;100.00;98822.34;5045185;28;20129;-59
2024/01/31 02:44:21;;;;;;;10.45;6.45;;;;;;;6.10;100.00;98820.41;5036637;28;20048;-59
2024/01/31 02:46:48;;;;;;;11.02;7.20;;;;;;;6.01;100.00;98818.78;5030701;28;20427;-58
2024/01/31 02:49:14;;;;;;;12.30;7.60;;;;;;;5.95;100.00;98825.75;5037521;28;20069;-61
2024/01/31 02:51:41;;;;;;;11.80;7.50;;;;;;;5.91;100.00;98819.09;5033086;28;20037;-60
2024/01/31 02:54:08;;;;;;;11.82;7.72;;;;;;;5.85;100.00;98826.03;5032283;28;20789;-60
2024/01/31 02:56:34;;;;;;;13.10;8.38;;;;;;;5.82;100.00;98825.59;5029369;28;20037;-60
2024/01/31 02:59:01;;;;;;;11.23;7.60;;;;;;;5.88;100.00;98829.34;5034179;28;20048;-61
2024/01/31 03:01:27;;;;;;;11.32;7.47;;;;;;;5.81;100.00;98818.53;5032424;28;20596;-59
2024/01/31 03:03:54;;;;;;;10.88;6.93;;;;;;;5.88;100.00;98827.53;5046185;28;20041;-60
2024/01/31 03:06:20;;;;;;;10.77;6.70;;;;;;;5.86;100.00;98822.31;5029717;28;20042;-61
2024/01/31 03:08:48;;;;;;;11.85;6.97;;;;;;;5.87;100.00;98825.84;5040847;28;20046;-61
2024/01/31 03:11:14;;;;;;;9.77;6.20;;;;;;;5.83;100.00;98821.88;5044944;28;20064;-60
2024/01/31 03:13:41;;;;;;;11.00;6.43;;;;;;;5.79;100.00;98823.25;5034749;28;20049;-61
2024/01/31 03:16:07;;;;;;;11.50;6.40;;;;;;;5.78;100.00;98817.03;5031087;28;20049;-60
2024/01/31 03:18:34;;;;;;;9.40;5.72;;;;;;;5.85;100.00;98817.97;5045945;28;20064;-60
2024/01/31 03:21:01;;;;;;;10.50;6.18;;;;;;;5.84;100.00;98824.38;5034944;28;20037;-61
2024/01/31 03:23:27;;;;;;;10.32;6.35;;;;;;;5.81;100.00;98819.38;5034595;28;20052;-60
2024/01/31 03:25:54;;;;;;;9.13;6.25;;;;;;;5.75;100.00;98817.41;5036661;28;20669;-60
2024/01/31 03:28:20;;;;;;;9.77;6.00;;;;;;;5.75;100.00;98813.91;5039262;28;20041;-59
2024/01/31 03:30:47;;;;;;;11.00;6.35;;;;;;;5.89;100.00;98820.31;5033165;28;20183;-61
2024/01/31 03:33:13;;;;;;;8.40;5.32;;;;;;;6.08;100.00;98819.75;5042607;28;20068;-59
2024/01/31 03:35:40;;;;;;;10.00;6.38;;;;;;;5.97;100.00;98814.84;5042410;28;20055;-60
2024/01/31 03:38:08;;;;;;;11.73;6.35;;;;;;;5.89;100.00;98814.91;5040426;28;20041;-60
2024/01/31 03:40:36;;;;;;;9.95;6.20;;;;;;;5.85;100.00;98823.34;5030452;28;20040;-60
2024/01/31 03:43:03;;;;;;;9.07;5.93;;;;;;;5.91;100.00;98815.56;5036351;28;20039;-60
2024/01/31 03:45:30;;;;;;;10.88;5.95;;;;;;;5.96;100.00;98826.59;5040467;28;20087;-60
2024/01/31 03:47:56;;;;;;;13.13;6.03;;;;;;;5.97;100.00;98829.09;5041250;28;20041;-61
2024/01/31 03:50:23;;;;;;;11.38;6.10;;;;;;;5.90;100.00;98817.41;5043711;28;20543;-60
2024/01/31 03:52:49;;;;;;;11.13;6.55;;;;;;;5.96;100.00;98823.91;5033785;28;20049;-59
2024/01/31 03:55:16;;;;;;;9.50;6.28;;;;;;;5.97;100.00;98815.66;5032520;28;20044;-57
2024/01/31 03:57:43;;;;;;;11.27;7.03;;;;;;;5.98;100.00;98816.50;5041846;28;20688;-60
2024/01/31 04:00:10;;;;;;;10.75;6.32;;;;;;;5.94;100.00;98813.31;5040779;28;20559;-59
2024/01/31 04:02:37;;;;;;;12.93;6.72;;;;;;;6.05;100.00;98816.59;5049312;28;20041;-60
2024/01/31 04:05:03;;;;;;;11.23;7.30;;;;;;;5.96;100.00;98818.50;5039729;28;20041;-60
2024/01/31 04:07:30;;;;;;;11.70;7.00;;;;;;;5.87;100.00;98815.09;5039469;28;20045;-60
2024/01/31 04:09:57;;;;;;;12.13;7.30;;;;;;;5.96;100.00;98818.50;5036652;28;20063;-61
2024/01/31 04:12:24;;;;;;;12.23;6.95;;;;;;;6.13;100.00;98821.03;5038799;28;20087;-61
2024/01/31 04:14:50;;;;;;;13.18;6.80;;;;;;;6.23;100.00;98824.28;5036850;28;21764;-59
2024/01/31 04:17:17;;;;;;;10.82;6.32;;;;;;;6.17;100.00;98828.56;5032001;28;20045;-60
2024/01/31 04:19:48;;;;;;;10.27;6.20;;;;;;;6.27;100.00;98830.97;5035628;28;20041;-59
2024/01/31 04:22:16;;;;;;;9.70;6.45;;;;;;;6.21;100.00;98837.94;5045724;28;20041;-59
2024/01/31 04:24:43;;;;;;;12.93;6.80;;;;;;;6.02;100.00;98830.38;5039602;28;20686;-59
2024/01/31 04:27:10;;;;;;;10.40;6.25;;;;;;;5.98;100.00;98827.25;5042870;28;20635;-59
2024/01/31 04:29:40;;;;;;;12.70;6.55;;;;;;;5.95;100.00;98839.22;5032263;28;20041;-57
2024/01/31 04:32:07;;;;;;;11.88;6.85;;;;;;;5.93;100.00;98833.16;5039984;28;20037;-60
2024/01/31 04:34:36;;;;;;;11.95;7.30;;;;;;;6.18;100.00;98840.13;5030822;28;20035;-60
2024/01/31 04:37:03;;;;;;;9.85;6.13;;;;;;;6.30;100.00;98841.31;5033199;28;20052;-59
2024/01/31 04:39:30;;;;;;;12.23;6.20;;;;;;;6.34;100.00;98839.13;5039143;28;20040;-59
2024/01/31 04:41:56;;;;;;;11.55;5.95;;;;;;;6.33;100.00;98838.28;5037779;28;20061;-60
2024/01/31 04:44:23;;;;;;;11.55;6.70;;;;;;;6.23;100.00;98846.63;5038496;28;20041;-59
2024/01/31 04:46:49;;;;;;;12.80;6.95;;;;;;;6.05;100.00;98848.88;5046755;28;20048;-60
2024/01/31 04:49:16;;;;;;;10.05;6.35;;;;;;;5.91;100.00;98850.50;5037850;28;20049;-59
2024/01/31 04:51:43;;;;;;;12.43;6.22;;;;;;;5.91;100.00;98851.34;5042812;28;20041;-60
2024/01/31 04:54:09;;;;;;;12.88;7.40;;;;;;;6.01;100.00;98847.53;5040356;28;20051;-60
2024/01/31 04:56:36;;;;;;;12.95;7.20;;;;;;;5.96;100.00;98854.31;5038416;28;20045;-60
2024/01/31 04:59:03;;;;;;;12.52;7.68;;;;;;;5.96;100.00;98848.09;5046591;28;20075;-60
2024/01/31 05:01:29;;;;;;;10.75;6.72;;;;;;;5.94;100.00;98856.34;5042546;28;20037;-60
2024/01/31 05:03:58;;;;;;;9.63;6.25;;;;;;;6.03;100.00;98857.13;5031900;28;20041;-60
2024/01/31 05:06:26;;;;;;;12.40;6.55;;;;;;;5.98;100.00;98857.63;5037894;28;20045;-60
2024/01/31 05:08:52;;;;;;;14.00;7.20;;;;;;;5.94;100.00;98860.91;5029853;28;20053;-60
2024/01/31 05:11:19;;;;;;;13.07;6.65;;;;;;;5.89;100.00;98869.50;5033801;28;20041;-60
2024/01/31 05:13:45;;;;;;;11.52;6.90;;;;;;;5.86;100.00;98868.03;5039895;28;20046;-60
2024/01/31 05:16:15;;;;;;;11.45;7.15;;;;;;;5.89;100.00;98871.38;5032072;28;20150;-60
2024/01/31 05:18:41;;;;;;;12.85;7.03;;;;;;;5.93;100.00;98878.06;5039422;28;20041;-58
2024/01/31 05:21:10;;;;;;;13.57;8.50;;;;;;;5.87;100.00;98874.25;5036495;28;20679;-60
2024/01/31 05:23:37;;;;;;;13.07;8.20;;;;;;;5.84;100.00;98875.44;5039612;28;20065;-60
2024/01/31 05:26:08;;;;;;;13.35;7.63;;;;;;;5.85;100.00;98874.44;5040112;28;20033;-61
2024/01/31 05:28:36;;;;;;;12.77;7.63;;;;;;;5.86;100.00;98881.47;5042066;28;20049;-59
2024/01/31 05:31:06;;;;;;;14.85;7.93;;;;;;;5.82;100.00;98885.53;5041367;28;20052;-60
2024/01/31 05:33:32;;;;;;;12.43;7.78;;;;;;;5.79;100.00;98891.28;5033411;28;20033;-60
2024/01/31 05:36:00;;;;;;;17.33;7.70;;;;;;;5.77;100.00;98895.16;5038237;28;20045;-59
2024/01/31 05:38:27;;;;;;;9.95;6.80;;;;;;;5.85;100.00;98890.56;5042246;28;20068;-59
2024/01/31 05:40:54;;;;;;;8.90;5.97;;;;;;;5.92;100.00;98882.59;5034137;28;20041;-60
2024/01/31 05:43:20;;;;;;;9.25;6.30;;;;;;;6.03;100.00;98886.69;5031561;28;20075;-59
2024/01/31 05:45:47;;;;;;;12.95;6.85;;;;;;;6.06;100.00;98883.66;5035845;28;20253;-60
2024/01/31 05:48:14;;;;;;;11.10;6.53;;;;;;;6.09;100.00;98887.81;5037410;28;20727;-57
2024/01/31 05:50:41;;;;;;;14.75;7.13;;;;;;;6.12;100.00;98892.84;5037431;28;20052;-60
2024/01/31 05:53:08;;;;;;;13.27;7.18;;;;;;;6.12;100.00;98895.53;5037334;28;20412;-60
2024/01/31 05:55:35;;;;;;;11.27;7.45;;;;;;;6.13;100.00;98891.81;5041751;28;20123;-60
2024/01/31 05:58:02;;;;;;;13.45;7.50;;;;;;;6.15;100.00;98888.94;5040305;28;20033;-59
2024/01/31 06:00:29;;;;;;;12.48;7.07;;;;;;;6.17;100.00;98887.72;5044371;28;20037;-57
2024/01/31 06:02:55;;;;;;;11.50;7.20;;;;;;;6.22;100.00;98882.63;5031489;28;20251;-58
2024/01/31 06:05:26;;;;;;;12.55;6.43;;;;;;;6.24;100.00;98887.81;5036865;28;20041;-59
2024/01/31 06:07:53;;;;;;;12.45;7.72;;;;;;;6.26;100.00;98903.78;5036666;28;20128;-60
2024/01/31 06:10:20;;;;;;;12.15;7.25;;;;;;;6.27;100.00;98895.53;5034294;28;20046;-58
2024/01/31 06:12:46;;;;;;;14.75;7.60;;;;;;;6.29;100.00;98892.63;5041850;28;20138;-60
2024/01/31 06:15:13;;;;;;;10.00;7.18;;;;;;;6.27;100.00;98889.31;5038397;28;20046;-60
2024/01/31 06:17:41;;;;;;;13.52;6.60;;;;;;;6.25;100.00;98894.84;5038251;28;20048;-60
2024/01/31 06:20:09;;;;;;;10.52;7.22;;;;;;;6.27;100.00;98902.75;5038088;28;20037;-62
2024/01/31 06:22:36;;;;;;;13.27;7.13;;;;;;;6.31;100.00;98896.81;5051548;28;20028;-62
2024/01/31 06:25:03;;;;;;;13.90;8.00;;;;;;;6.30;100.00;98900.50;5041811;28;20104;-62
2024/01/31 06:27:31;;;;;;;13.82;8.90;;;;;;;6.26;100.00;98907.28;5033147;28;20053;-62
2024/01/31 06:29:59;;;;;;;13.52;8.80;;;;;;;6.22;100.00;98908.66;5032868;28;20504;-62
2024/01/31 06:32:32;;;;;;;15.98;9.07;;;;;;;6.17;100.00;98913.78;5041111;28;20025;-62
2024/01/31 06:34:59;;;;;;;15.43;10.00;;;;;;;6.09;100.00;98909.34;5044001;28;20045;-62
2024/01/31 06:37:26;;;;;;;17.23;11.40;;;;;;;6.11;100.00;98907.28;5042349;28;20045;-62
2024/01/31 06:39:54;;;;;;;17.63;10.88;;;;;;;6.14;100.00;98906.91;5044728;28;20064;-62
2024/01/31 06:42:21;;;;;;;17.55;11.05;;;;;;;6.13;100.00;98909.78;5042563;28;20045;-62
2024/01/31 06:44:47;;;;;;;15.13;11.13;;;;;;;6.09;100.00;98910.16;5042693;28;20048;-62
2024/01/31 06:47:14;;;;;;;20.00;10.77;;;;;;;6.12;100.00;98908.97;5039510;28;20041;-62
2024/01/31 06:49:40;;;;;;;19.38;11.40;;;;;;;6.09;100.00;98912.84;5033772;28;20049;-62
2024/01/31 06:52:10;;;;;;;19.58;11.77;;;;;;;6.12;100.00;98914.34;5042316;28;20040;-62
2024/01/31 06:54:36;;;;;;;15.68;10.27;;;;;;;6.13;100.00;98913.31;5043307;28;20136;-62
2024/01/31 06:57:03;;;;;;;16.00;11.00;;;;;;;6.16;100.00;98923.69;5036243;28;20048;-62
2024/01/31 06:59:30;;;;;;;17.42;10.88;;;;;;;6.15;100.00;98923.91;5044347;28;20472;-61
2024/01/31 07:01:56;;;;;;;18.90;11.55;;;;;;;6.19;100.00;98920.63;5037837;28;20047;-62
2024/01/31 07:04:23;;;;;;;19.08;9.93;;;;;;;6.18;100.00;98912.75;5046981;28;20514;-61
2024/01/31 07:06:49;;;;;;;20.65;11.35;;;;;;;6.19;100.00;98920.63;5045235;28;20036;-62
2024/01/31 07:09:16;;;;;;;29.92;19.55;;;;;;;6.17;100.00;98924.53;5038678;28;20044;-61
2024/01/31 07:11:43;;;;;;;23.25;14.32;;;;;;;6.14;100.00;98924.91;5040470;28;20496;-61
2024/01/31 07:14:09;;;;;;;25.70;14.80;;;;;;;6.13;100.00;98918.69;5032132;28;20129;-61
2024/01/31 07:16:36;;;;;;;21.65;13.50;;;;;;;6.13;100.00;98917.84;5033258;28;20052;-61
2024/01/31 07:19:03;;;;;;;20.60;12.25;;;;;;;6.14;100.00;98919.53;5049582;28;20037;-62
2024/01/31 07:21:29;;;;;;;37.42;26.40;;;;;;;6.15;100.00;98918.53;5038646;28;20038;-62
2024/01/31 07:23:56;;;;;;;26.40;17.42;;;;;;;6.14;100.00;98916.84;5033436;28;20123;-62
2024/01/31 07:26:29;;;;;;;21.25;15.00;;;;;;;6.16;100.00;98917.50;5044424;28;20052;-61
2024/01/31 07:28:56;;;;;;;22.45;13.63;;;;;;;6.18;100.00;98916.28;5032365;28;20041;-61
2024/01/31 07:31:23;;;;;;;21.45;13.07;;;;;;;6.20;100.00;98924.19;5042830;28;20107;-61
2024/01/31 07:33:50;;;;;;;25.23;14.07;;;;;;;6.19;100.00;98911.75;5034805;28;20045;-62
2024/01/31 07:36:16;;;;;;;24.15;15.13;;;;;;;6.18;100.00;98916.28;5027608;28;20041;-61
2024/01/31 07:38:44;;;;;;;30.63;17.98;;;;;;;6.21;100.00;98920.47;5034772;28;20044;-61
2024/01/31 07:41:12;;;;;;;25.92;16.63;;;;;;;6.22;100.00;98927.50;5040193;28;20046;-64
2024/01/31 07:43:40;;;;;;;24.35;15.25;;;;;;;6.23;100.00;98930.00;5037900;28;20144;-61
2024/01/31 07:46:09;;;;;;;24.92;15.80;;;;;;;6.17;100.00;98930.75;5035692;28;20037;-62
2024/01/31 07:48:36;;;;;;;24.85;15.75;;;;;;;6.09;100.00;98928.97;5046768;28;20507;-63
2024/01/31 07:51:04;;;;;;;23.25;15.25;;;;;;;6.12;100.00;98933.19;5031386;28;20128;-62
2024/01/31 07:53:33;;;;;;;25.42;16.20;;;;;;;6.07;100.00;98935.56;5034183;28;20037;-62
2024/01/31 07:56:00;;;;;;;26.08;18.27;;;;;;;5.99;100.00;98926.56;5044165;28;20123;-62
2024/01/31 07:58:31;;;;;;;30.13;17.13;;;;;;;6.05;100.00;98924.97;5045126;28;20407;-61
2024/01/31 08:00:58;;;;;;;24.30;16.33;;;;;;;6.09;100.00;98926.28;5031852;28;20525;-62
2024/01/31 08:03:24;;;;;;;29.88;17.27;;;;;;;6.14;100.00;98925.75;5031246;28;20042;-62
2024/01/31 08:05:51;;;;;;;27.02;16.75;;;;;;;6.09;100.00;98920.91;5039277;28;20041;-62
2024/01/31 08:08:18;;;;;;;29.85;17.65;;;;;;;6.11;100.00;98920.72;5036680;28;20691;-62
2024/01/31 08:10:44;;;;;;;25.63;16.55;;;;;;;6.14;100.00;98920.38;5040035;28;20124;-62
2024/01/31 08:13:11;;;;;;;24.90;16.05;;;;;;;6.13;100.00;98920.53;5031951;28;20071;-62
2024/01/31 08:15:38;;;;;;;29.92;16.15;;;;;;;6.10;100.00;98919.06;5035128;28;20090;-62
2024/01/31 08:18:05;;;;;;;23.23;15.48;;;;;;;6.16;100.00;98925.56;5026908;28;20068;-62
2024/01/31 08:20:32;;;;;;;27.33;15.63;;;;;;;6.24;100.00;98925.47;5038784;28;20115;-62
2024/01/31 08:22:59;;;;;;;25.95;17.38;;;;;;;6.03;100.00;98920.78;5043440;28;20042;-61
2024/01/31 08:25:26;;;;;;;26.17;16.42;;;;;;;6.02;100.00;98921.81;5036762;28;20149;-61
2024/01/31 08:27:53;;;;;;;25.40;15.70;;;;;;;6.01;100.00;98920.97;5046068;28;20552;-61
2024/01/31 08:30:21;;;;;;;28.00;17.45;;;;;;;6.16;100.00;98922.88;5028536;28;20183;-62
2024/01/31 08:32:47;;;;;;;25.23;16.60;;;;;;;6.24;100.00;98922.78;5038250;28;20045;-62
2024/01/31 08:35:14;;;;;;;27.58;17.23;;;;;;;6.29;100.00;98925.75;5037549;28;20041;-62
2024/01/31 08:37:41;;;;;;;28.10;16.15;;;;;;;6.35;100.00;98921.47;5045240;28;20064;-62
2024/01/31 08:40:10;;;;;;;28.80;16.35;;;;;;;6.40;100.00;98919.06;5043006;28;20356;-62
2024/01/31 08:42:39;;;;;;;24.90;15.93;;;;;;;6.34;100.00;98926.03;5028786;28;20029;-62
2024/01/31 08:45:09;;;;;;;22.48;15.18;;;;;;;6.45;100.00;98919.34;5042605;28;20090;-62
2024/01/31 08:47:36;;;;;;;26.13;15.73;;;;;;;6.53;100.00;98925.66;5034680;28;20064;-62
2024/01/31 08:50:03;;;;;;;24.55;15.95;;;;;;;6.58;100.00;98924.06;5048187;28;20547;-62
2024/01/31 08:52:30;;;;;;;28.17;16.83;;;;;;;6.63;100.00;98929.72;5054265;28;20034;-62
2024/01/31 08:54:56;;;;;;;28.10;17.50;;;;;;;6.68;100.00;98929.16;5050639;28;20040;-62
2024/01/31 08:57:23;;;;;;;22.45;14.90;;;;;;;6.74;100.00;98912.25;5037858;28;20123;-62
2024/01/31 08:59:50;;;;;;;24.80;15.63;;;;;;;6.75;100.00;98913.09;5035099;28;20038;-62
2024/01/31 09:02:17;;;;;;;27.35;15.40;;;;;;;6.57;100.00;98917.03;5018993;28;20030;-61
2024/01/31 09:04:43;;;;;;;27.05;15.48;;;;;;;6.64;100.00;98909.03;5037540;28;20049;-61
2024/01/31 09:07:10;;;;;;;25.75;15.40;;;;;;;6.73;100.00;98915.97;5042602;28;20043;-61
2024/01/31 09:09:38;;;;;;;22.05;14.98;;;;;;;6.62;100.00;98909.22;5045667;28;20063;-62
2024/01/31 09:12:05;;;;;;;31.00;16.73;;;;;;;6.68;100.00;98910.31;5044779;28;20044;-62
2024/01/31 09:14:35;;;;;;;26.08;17.00;;;;;;;6.83;100.00;98912.97;5032766;28;20077;-62
2024/01/31 09:17:02;;;;;;;29.33;16.33;;;;;;;6.76;100.00;98909.38;5036959;28;20132;-62
2024/01/31 09:19:28;;;;;;;25.45;15.10;;;;;;;6.84;100.00;98903.88;5039528;28;20760;-61
2024/01/31 09:21:55;;;;;;;27.80;15.85;;;;;;;7.03;100.00;98898.88;5050171;28;20032;-62
2024/01/31 09:24:22;;;;;;;25.40;15.90;;;;;;;6.85;100.00;98905.53;5037362;28;20053;-62
2024/01/31 09:26:48;;;;;;;24.88;15.05;;;;;;;7.01;100.00;98914.41;5043017;28;20050;-62
2024/01/31 09:29:15;;;;;;;25.10;15.07;;;;;;;7.15;100.00;98904.63;5035970;28;20041;-62
2024/01/31 09:31:41;;;;;;;26.73;15.32;;;;;;;7.18;100.00;98909.59;5034383;28;20045;-62
2024/01/31 09:34:08;;;;;;;24.88;14.80;;;;;;;7.21;100.00;98905.69;5053533;28;20067;-62
2024/01/31 09:36:35;;;;;;;27.58;15.50;;;;;;;7.26;100.00;98911.38;5036340;28;20080;-62
2024/01/31 09:39:03;;;;;;;25.77;15.02;;;;;;;7.30;100.00;98907.25;5040054;28;20174;-62
2024/01/31 09:41:30;;;;;;;29.60;16.17;;;;;;;7.13;100.00;98909.34;5040901;28;20048;-62
2024/01/31 09:43:56;;;;;;;24.92;15.27;;;;;;;7.14;100.00;98902.94;5043878;28;20040;-62
2024/01/31 09:46:23;;;;;;;23.15;15.10;;;;;;;7.30;100.00;98899.19;5046232;28;20056;-62
2024/01/31 09:48:51;;;;;;;24.08;15.50;;;;;;;7.35;100.00;98910.19;5049906;28;20408;-62
2024/01/31 09:51:21;;;;;;;23.63;15.45;;;;;;;7.46;100.00;98914.25;5043683;28;20704;-62
2024/01/31 09:53:51;;;;;;;24.25;15.35;;;;;;;7.50;100.00;98911.97;5029972;28;20048;-62
2024/01/31 09:56:18;;;;;;;28.67;14.93;;;;;;;7.48;100.00;98908.66;5046891;28;20045;-62
2024/01/31 09:58:45;;;;;;;24.42;14.88;;;;;;;7.60;100.00;98904.41;5036134;28;20052;-62
2024/01/31 10:01:13;;;;;;;25.13;15.85;;;;;;;7.64;100.00;98903.00;5034128;28;20047;-62
2024/01/31 10:03:51;;;;;;;28.48;16.13;;;;;;;7.91;100.00;98899.66;5038402;28;20072;-62
2024/01/31 10:06:19;;;;;;;24.10;15.10;;;;;;;7.92;100.00;98902.16;5034540;28;20080;-62
2024/01/31 10:08:46;;;;;;;26.88;14.85;;;;;;;7.88;100.00;98903.56;5039447;28;20065;-61
2024/01/31 10:11:13;;;;;;;26.40;14.88;;;;;;;7.91;100.00;98903.19;5048611;28;20040;-62
2024/01/31 10:13:39;;;;;;;20.70;14.25;;;;;;;7.93;100.00;98893.03;5039317;28;20037;-61
2024/01/31 10:16:06;;;;;;;23.90;15.27;;;;;;;8.01;100.00;98896.59;5036654;28;20040;-62
2024/01/31 10:18:33;;;;;;;21.35;15.23;;;;;;;7.94;100.00;98894.72;5048258;28;20045;-61
2024/01/31 10:21:01;;;;;;;26.25;14.88;;;;;;;8.07;100.00;98882.31;5035216;28;20040;-62
2024/01/31 10:23:28;;;;;;;25.88;15.00;;;;;;;7.87;100.00;98876.78;5037269;28;20039;-62
2024/01/31 10:25:54;;;;;;;27.13;16.45;;;;;;;7.97;100.00;98877.28;5046748;28;20049;-62
2024/01/31 10:28:21;;;;;;;24.15;14.80;;;;;;;8.14;100.00;98883.19;5037894;28;20442;-61
2024/01/31 10:30:49;;;;;;;28.02;14.95;;;;;;;8.13;100.00;98883.38;5047021;28;20051;-62
2024/01/31 10:33:16;;;;;;;24.73;14.63;;;;;;;8.17;100.00;98885.50;5044082;28;20068;-63
2024/01/31 10:35:45;;;;;;;26.20;15.07;;;;;;;8.12;100.00;98879.88;5038230;28;20064;-62
2024/01/31 10:38:32;;;;;;;23.67;14.45;;;;;;;8.11;100.00;98870.09;5042631;28;20689;-62
2024/01/31 10:40:59;;;;;;;23.45;15.32;;;;;;;7.80;100.00;98874.06;5033429;28;20052;-63
2024/01/31 10:43:27;;;;;;;22.80;15.25;;;;;;;8.09;100.00;98871.31;5038992;28;20692;-61
2024/01/31 10:45:53;;;;;;;25.50;15.85;;;;;;;8.25;100.00;98872.88;5040773;28;20080;-63
2024/01/31 10:48:20;;;;;;;19.58;14.07;;;;;;;8.36;100.00;98856.09;5042950;28;20060;-61
2024/01/31 10:50:48;;;;;;;23.30;14.98;;;;;;;8.41;100.00;98864.44;5048039;28;20050;-61
2024/01/31 10:53:16;;;;;;;21.98;15.18;;;;;;;8.51;100.00;98868.66;5046337;28;20721;-62
2024/01/31 10:55:44;;;;;;;21.20;13.50;;;;;;;8.51;100.00;98863.25;5036684;28;20049;-62
2024/01/31 10:58:12;;;;;;;20.98;13.85;;;;;;;8.55;100.00;98859.97;5032486;28;20130;-63
2024/01/31 11:00:46;;;;;;;22.67;14.02;;;;;;;8.62;100.00;98851.88;5047955;28;20041;-63
2024/01/31 11:03:17;;;;;;;21.90;14.23;;;;;;;8.65;100.00;98856.03;5034147;28;20060;-64
2024/01/31 11:05:44;;;;;;;19.92;13.00;;;;;;;8.83;100.00;98847.38;5041430;28;20074;-63
2024/01/31 11:08:21;;;;;;;22.67;14.30;;;;;;;8.68;100.00;98848.38;5037459;28;20136;-63
2024/01/31 11:10:48;;;;;;;23.40;14.75;;;;;;;8.86;100.00;98838.88;5033141;28;20060;-63
2024/01/31 11:13:15;;;;;;;26.08;14.55;;;;;;;8.75;100.00;98836.75;5036301;28;20102;-63
2024/01/31 11:15:42;;;;;;;19.20;13.60;;;;;;;8.81;100.00;98828.66;5044568;28;20050;-63
2024/01/31 11:18:14;;;;;;;25.77;15.45;;;;;;;8.77;100.00;98822.00;5039811;28;20048;-63
2024/01/31 11:20:46;;;;;;;23.63;14.55;;;;;;;8.93;100.00;98826.22;5038517;28;20052;-62
2024/01/31 11:23:19;;;;;;;22.48;14.07;;;;;;;9.18;100.00;98825.59;5046554;28;20037;-61